Aviation Digital Data Service (ADDS)

Output produced by METARs form (1319 UTC 14 December 2017)
found at http://aviationweather.gov/adds/metars/
 
KLCH 141253Z 00000KT 5SM BR CLR 06/06 A2998 RMK AO2 SLP159 T00610056